Niceville, Florida
Current Conditions -  °F | °C
As of 4:55 AM on Sunday 23 Nov 2014 (Local Time) from KVPS Reporting Station
Haze Haze  
Wind Chill: 66°   Ceiling: 300
Heat Index: 66°   Visibility: 4mi
Dew Point: 65°   Wind: 17mph
Humidity: 98%   Direction: 140°SE
Pressure: 29.85"   Gusts: 23mph
Location:  30.52°N, 86.49°W
Report Text: KVPS 231055Z 14015G20KT 4SM BR OVC003 19/19 A2985 RMK AO2A SLP114 T01900186 $
Loading
Personal Weather Stations






























Interactive Weather Map New forecast layout! Learn more

10-Day Weather Forecast

Advertisements
Track Severe Weather on mobile